KAIA/AIA METAR and TAF weather

Enter ICAO airport designator
Station Type Date Time Source
KAIA METAR 2019/12/06 03:53 UTC NOAA

KAIA 060353Z AUTO 01008KT 10SM OVC006 M01/M03 A3025 RMK AO2 SLP278 T10111028


Station Type Date Time Source
KAIA Decoded METAR 2019/12/06 03:53 UTC NOAA

ALLIANCE MUNICIPAL AIRPORT, NE, United States (KAIA) 42-03N 102-48W 1196M
Dec 05, 2019 - 10:53 PM EST / 2019.12.06 0353 UTC
Wind: from the N (010 degrees) at 9 MPH (8 KT):0
Visibility: 10 mile(s):0
Sky conditions: overcast
Temperature: 30.0 F (-1.1 C)
Windchill: 21 F (-6 C):1
Dew Point: 27.0 F (-2.8 C)
Relative Humidity: 88%
Pressure (altimeter): 30.25 in. Hg (1024 hPa)
ob: KAIA 060353Z AUTO 01008KT 10SM OVC006 M01/M03 A3025 RMK AO2 SLP278 T10111028
cycle: 4

Station Type Date Time Source
KAIA TAF 2019/12/06 04:06 UTC NOAA

TAF
AMD KAIA 060403Z 0604/0624 36011KT P6SM OVC006
FM060600 36005KT 2SM BR OVC005
FM061000 19007KT P6SM BKN015
FM061700 22012KT P6SM SCT025

Example: see airport list